Terminal Aerodrome Forecast
Issued by NWS Portland, OR

Home | Current Version | Previous Version | Text Only | Print | Product List | Glossary On
Versions: 1 2 3 4 5 6 7 8 9 10 11 12 13 14 15 16 17 18 19 20 21 22 23
000
FTUS46 KPQR 230156 AAA
TAFHIO
TAF AMD
KHIO 230156Z 2302/2324 16010KT P6SM -RA SCT025 OVC050
      TEMPO 2302/2304 6SM -RA BR BKN025
     FM230600 17007KT P6SM -SHRA SCT025 OVC040
     FM231800 20006KT P6SM -SHRA BKN050=

USA.gov is the U.S. government's official web portal to all federal, state and local government web resources and services.